Terminal Aerodrome Forecast
Issued by NWS Blacksburg, VA

Home | Current Version | Previous Version | Text Only | Print | Product List | Glossary On
Versions: 1 2 3 4 5 6 7 8 9 10 11 12 13 14 15 16 17 18 19 20 21 22 23 24 25 26 27 28 29 30 31 32 33 34 35 36
000
FTUS41 KRNK 040529
TAFDAN
TAF
KDAN 040529Z 0406/0506 00000KT 3SM BR VCSH BKN007 OVC025
     FM041200 25007KT P6SM BKN020
     FM041600 25008G16KT P6SM VCSH BKN040
     FM050200 27006KT P6SM SCT060 BKN120=

USA.gov is the U.S. government's official web portal to all federal, state and local government web resources and services.